Knightstown, Indiana
Current Conditions -  °F | °C
As of 1:15 PM on Sunday 25 Jan 2015 (Local Time) from KMQJ Reporting Station
Overcast Overcast  
Wind Chill: 31°   Ceiling: 1200
Heat Index: 36°   Visibility: 5mi
Dew Point: 36°   Wind: 6mph
Humidity: 100%   Direction: 110°ESE
Pressure: 29.66"   Gusts: NA
Location:  39.8°N, 85.53°W
Report Text: KMQJ 251815Z AUTO 11005KT 5SM SCT002 BKN012 OVC018 02/02 A2966 RMK AO1
Loading
Personal Weather Stations






























Interactive Weather Map New forecast layout! Learn more

10-Day Weather Forecast

Advertisements
Track Severe Weather on mobile